createdAt,value
2019-05-13T00:01:38.231Z,8.80
2019-05-13T00:07:40.467Z,8.90
2019-05-13T00:13:44.369Z,8.90
2019-05-13T00:19:46.608Z,8.80
2019-05-13T00:25:48.919Z,8.90
2019-05-13T00:31:54.003Z,9.00
2019-05-13T00:37:56.304Z,8.90
2019-05-13T00:43:58.467Z,8.90
2019-05-13T00:50:00.587Z,8.90
2019-05-13T00:56:04.023Z,8.80
2019-05-13T01:02:06.870Z,8.80
2019-05-13T01:08:09.097Z,8.70
2019-05-13T01:14:11.352Z,8.70
2019-05-13T01:20:14.587Z,8.60
2019-05-13T01:26:16.801Z,8.70
2019-05-13T01:32:23.682Z,8.70
2019-05-13T01:38:25.303Z,8.70
2019-05-13T01:44:27.591Z,8.70
2019-05-13T01:50:29.743Z,8.80
2019-05-13T01:56:33.805Z,8.70
2019-05-13T02:02:35.838Z,8.70
2019-05-13T02:08:38.048Z,8.70
2019-05-13T02:14:40.287Z,8.60
2019-05-13T02:20:44.313Z,8.60
2019-05-13T02:26:46.352Z,8.60
2019-05-13T02:32:53.105Z,8.60
2019-05-13T02:38:54.761Z,8.60
2019-05-13T02:44:57.017Z,8.60
2019-05-13T02:50:59.207Z,8.60
2019-05-13T02:57:03.746Z,8.60
2019-05-13T03:03:05.519Z,8.60
2019-05-13T03:09:07.732Z,8.50
2019-05-13T03:15:12.959Z,8.50
2019-05-13T03:21:14.766Z,8.60
2019-05-13T03:27:20.338Z,8.60
2019-05-13T03:33:27.857Z,8.60
2019-05-13T03:39:28.334Z,8.50
2019-05-13T03:45:34.017Z,8.60
2019-05-13T03:51:37.000Z,8.70
2019-05-13T03:57:42.348Z,8.70
2019-05-13T04:03:44.301Z,8.60
2019-05-13T04:09:46.629Z,8.70
2019-05-13T04:15:48.867Z,8.70
2019-05-13T04:21:52.831Z,8.80
2019-05-13T04:27:55.192Z,8.80
2019-05-13T04:34:02.181Z,8.90
2019-05-13T04:40:05.381Z,8.90
2019-05-13T04:46:07.885Z,9.00
2019-05-13T04:52:13.123Z,9.00
2019-05-13T04:58:14.404Z,9.20
2019-05-13T05:04:34.557Z,9.10
2019-05-13T05:10:58.416Z,9.10
2019-05-13T05:17:43.158Z,9.10
2019-05-13T05:24:14.388Z,9.30
2019-05-13T05:30:51.875Z,9.50
2019-05-13T05:37:22.364Z,9.50
2019-05-13T05:43:27.129Z,9.60
2019-05-13T05:49:31.799Z,9.80
2019-05-13T05:55:34.580Z,10.10
2019-05-13T06:01:41.565Z,10.20
2019-05-13T06:07:44.123Z,10.40
2019-05-13T06:13:46.639Z,10.60
2019-05-13T06:19:51.216Z,10.70
2019-05-13T06:25:53.828Z,10.90
2019-05-13T06:31:57.109Z,11.00
2019-05-13T06:38:01.475Z,11.10
2019-05-13T06:44:04.181Z,11.40
2019-05-13T06:50:11.649Z,11.60
2019-05-13T06:56:13.796Z,11.70
2019-05-13T07:02:15.995Z,11.70
2019-05-13T07:08:18.288Z,11.90
2019-05-13T07:14:21.790Z,12.10
2019-05-13T07:20:24.120Z,12.10
2019-05-13T07:26:26.312Z,12.40
2019-05-13T07:32:31.313Z,12.80
2019-05-13T07:38:33.733Z,13.10
2019-05-13T07:44:35.854Z,13.30
2019-05-13T07:50:51.470Z,13.80
2019-05-13T07:56:42.826Z,13.90
2019-05-13T08:02:45.110Z,13.80
2019-05-13T08:08:47.383Z,14.10
2019-05-13T08:14:52.171Z,14.20
2019-05-13T08:20:53.765Z,14.20
2019-05-13T08:26:56.022Z,14.30
2019-05-13T08:32:58.261Z,14.70
2019-05-13T08:39:02.603Z,14.90
2019-05-13T08:45:04.860Z,16.00
2019-05-13T08:51:07.091Z,17.40
2019-05-13T08:57:11.624Z,17.80
2019-05-13T09:03:13.354Z,17.30
2019-05-13T09:09:15.532Z,16.80
2019-05-13T09:15:17.667Z,16.30
2019-05-13T09:21:22.300Z,15.90
2019-05-13T09:27:23.955Z,15.30
2019-05-13T09:33:26.132Z,15.50
2019-05-13T09:39:28.521Z,15.90
2019-05-13T09:45:32.206Z,16.10
2019-05-13T09:51:34.548Z,16.30
2019-05-13T09:57:36.734Z,16.70
2019-05-13T10:03:53.186Z,16.60
2019-05-13T10:09:45.833Z,17.00
2019-05-13T10:15:48.813Z,17.20
2019-05-13T10:21:53.280Z,16.90
2019-05-13T10:27:55.452Z,16.80
2019-05-13T10:33:58.903Z,17.70
2019-05-13T10:40:02.301Z,18.00
2019-05-13T10:46:05.779Z,18.30
2019-05-13T10:52:08.324Z,18.50
2019-05-13T10:58:12.320Z,17.90
2019-05-13T11:04:14.563Z,17.70
2019-05-13T11:10:22.252Z,17.40
2019-05-13T11:16:24.914Z,17.30
2019-05-13T11:22:27.266Z,17.60
2019-05-13T11:28:29.634Z,17.70
2019-05-13T11:34:33.889Z,18.10
2019-05-13T11:40:38.262Z,17.90
2019-05-13T11:46:42.789Z,17.10
2019-05-13T11:52:45.236Z,16.70
2019-05-13T11:58:47.466Z,17.50
2019-05-13T12:04:52.545Z,17.70
2019-05-13T12:10:54.417Z,17.60
2019-05-13T12:16:56.644Z,17.50
2019-05-13T12:22:58.847Z,17.60
2019-05-13T12:29:02.849Z,17.60
2019-05-13T12:35:05.519Z,17.30
2019-05-13T12:41:07.880Z,17.50
2019-05-13T12:47:12.106Z,17.80
2019-05-13T12:53:14.495Z,17.70
2019-05-13T12:59:16.701Z,17.20
2019-05-13T13:05:21.316Z,16.50
2019-05-13T13:11:23.191Z,16.00
2019-05-13T13:17:25.546Z,16.20
2019-05-13T13:23:27.656Z,16.30
2019-05-13T13:29:34.022Z,16.20
2019-05-13T13:35:35.214Z,16.20
2019-05-13T13:41:37.409Z,16.20
2019-05-13T13:47:45.095Z,16.10
2019-05-13T13:53:44.762Z,16.20
2019-05-13T14:00:16.186Z,15.90
2019-05-13T14:05:53.585Z,15.70
2019-05-13T14:11:55.436Z,15.80
2019-05-13T14:17:58.261Z,15.70
2019-05-13T14:24:02.607Z,15.60
2019-05-13T14:30:06.388Z,15.70
2019-05-13T14:36:08.846Z,15.80
2019-05-13T14:42:11.828Z,15.60
2019-05-13T14:48:14.930Z,15.70
2019-05-13T14:54:17.329Z,15.50
2019-05-13T15:00:21.960Z,15.50
2019-05-13T15:06:25.186Z,15.40
2019-05-13T15:12:27.529Z,15.50
2019-05-13T15:18:32.244Z,15.70
2019-05-13T15:24:34.282Z,15.90
2019-05-13T15:30:36.588Z,15.60
2019-05-13T15:36:38.904Z,15.70
2019-05-13T15:42:41.280Z,15.80
2019-05-13T15:48:43.557Z,15.90
2019-05-13T15:54:46.303Z,15.80
2019-05-13T16:00:48.495Z,15.70
2019-05-13T16:06:52.104Z,15.90
2019-05-13T16:12:54.552Z,15.90
2019-05-13T16:18:56.737Z,15.80
2019-05-13T16:25:00.900Z,15.50
2019-05-13T16:31:03.224Z,15.30
2019-05-13T16:37:05.416Z,15.30
2019-05-13T16:43:12.809Z,15.10
2019-05-13T16:49:14.919Z,15.00
2019-05-13T16:55:17.274Z,14.90
2019-05-13T17:01:21.816Z,14.80
2019-05-13T17:07:23.736Z,14.70
2019-05-13T17:13:25.910Z,14.70
2019-05-13T17:19:28.218Z,14.80
2019-05-13T17:25:30.441Z,15.00
2019-05-13T17:31:32.715Z,15.10
2019-05-13T17:37:34.938Z,15.10
2019-05-13T17:43:37.491Z,15.10
2019-05-13T17:49:41.852Z,15.10
2019-05-13T17:55:44.139Z,15.10
2019-05-13T18:01:46.357Z,15.00
2019-05-13T18:07:48.638Z,14.70
2019-05-13T18:13:51.878Z,14.40
2019-05-13T18:19:54.548Z,14.20
2019-05-13T18:25:56.757Z,14.00
2019-05-13T18:32:01.673Z,13.70
2019-05-13T18:38:04.660Z,13.50
2019-05-13T18:44:08.774Z,13.20
2019-05-13T18:50:12.496Z,13.00
2019-05-13T18:56:14.743Z,12.90
2019-05-13T19:02:17.171Z,12.70
2019-05-13T19:08:21.579Z,12.60
2019-05-13T19:14:24.805Z,12.50
2019-05-13T19:20:27.205Z,12.30
2019-05-13T19:26:29.395Z,12.20
2019-05-13T19:32:32.342Z,12.30
2019-05-13T19:38:34.807Z,12.10
2019-05-13T19:44:37.178Z,12.10
2019-05-13T19:50:41.799Z,11.80
2019-05-13T19:56:44.681Z,11.70
2019-05-13T20:02:47.042Z,11.60
2019-05-13T20:08:51.674Z,11.60
2019-05-13T20:14:54.160Z,11.50
2019-05-13T20:21:01.057Z,11.40
2019-05-13T20:27:03.337Z,11.40
2019-05-13T20:33:05.670Z,11.30
2019-05-13T20:39:11.861Z,11.20
2019-05-13T20:45:14.422Z,11.00
2019-05-13T20:51:16.717Z,10.90
2019-05-13T20:57:18.958Z,10.90
2019-05-13T21:03:22.934Z,10.80
2019-05-13T21:09:25.261Z,10.80
2019-05-13T21:15:27.819Z,10.70
2019-05-13T21:21:31.151Z,10.60
2019-05-13T21:27:33.489Z,10.50
2019-05-13T21:33:35.746Z,10.50
2019-05-13T21:39:37.927Z,10.40
2019-05-13T21:45:41.554Z,10.30
2019-05-13T21:51:43.786Z,10.10
2019-05-13T21:57:46.063Z,10.00
2019-05-13T22:03:48.232Z,9.90
2019-05-13T22:09:51.319Z,9.90
2019-05-13T22:15:54.024Z,9.90
2019-05-13T22:21:56.253Z,9.80
2019-05-13T22:27:58.427Z,9.70
2019-05-13T22:34:01.470Z,9.60
2019-05-13T22:40:04.296Z,9.50
2019-05-13T22:46:06.759Z,9.50
2019-05-13T22:52:11.276Z,9.40
2019-05-13T22:58:14.251Z,9.40
2019-05-13T23:04:16.404Z,9.40
2019-05-13T23:10:18.656Z,9.40
2019-05-13T23:16:22.197Z,9.40
2019-05-13T23:22:25.552Z,9.40
2019-05-13T23:28:27.844Z,9.30
2019-05-13T23:34:31.875Z,9.20
2019-05-13T23:40:34.131Z,9.10
2019-05-13T23:46:36.388Z,9.10
2019-05-13T23:52:38.671Z,9.00
2019-05-13T23:58:41.401Z,8.80
